sensor_id;sensor_type;location;lat;lon;timestamp;P1;durP1;ratioP1;P2;durP2;ratioP2
59127;SDS011;44912;52.754;5.994;2022-07-19T00:01:52;10.27;;;5.35;;
59127;SDS011;44912;52.754;5.994;2022-07-19T00:04:39;9.98;;;4.97;;
59127;SDS011;44912;52.754;5.994;2022-07-19T00:07:05;11.25;;;5.45;;
59127;SDS011;44912;52.754;5.994;2022-07-19T00:09:31;9.70;;;4.70;;
59127;SDS011;44912;52.754;5.994;2022-07-19T00:11:57;10.18;;;5.00;;
59127;SDS011;44912;52.754;5.994;2022-07-19T00:14:22;9.50;;;5.45;;
59127;SDS011;44912;52.754;5.994;2022-07-19T00:16:48;8.52;;;4.90;;
59127;SDS011;44912;52.754;5.994;2022-07-19T00:19:14;8.68;;;5.28;;
59127;SDS011;44912;52.754;5.994;2022-07-19T00:21:40;10.05;;;5.65;;
59127;SDS011;44912;52.754;5.994;2022-07-19T00:24:05;9.20;;;4.93;;
59127;SDS011;44912;52.754;5.994;2022-07-19T00:26:31;9.05;;;4.93;;
59127;SDS011;44912;52.754;5.994;2022-07-19T00:28:57;9.27;;;5.38;;
59127;SDS011;44912;52.754;5.994;2022-07-19T00:31:25;11.85;;;5.10;;
59127;SDS011;44912;52.754;5.994;2022-07-19T00:33:51;10.10;;;5.05;;
59127;SDS011;44912;52.754;5.994;2022-07-19T00:36:17;8.82;;;5.32;;
59127;SDS011;44912;52.754;5.994;2022-07-19T00:38:43;8.90;;;5.65;;
59127;SDS011;44912;52.754;5.994;2022-07-19T00:41:09;9.88;;;5.70;;
59127;SDS011;44912;52.754;5.994;2022-07-19T00:43:35;10.35;;;6.07;;
59127;SDS011;44912;52.754;5.994;2022-07-19T00:46:04;12.77;;;5.43;;
59127;SDS011;44912;52.754;5.994;2022-07-19T00:48:36;10.30;;;5.90;;
59127;SDS011;44912;52.754;5.994;2022-07-19T00:51:02;9.88;;;5.22;;
59127;SDS011;44912;52.754;5.994;2022-07-19T00:53:28;13.77;;;6.25;;
59127;SDS011;44912;52.754;5.994;2022-07-19T00:55:57;9.68;;;5.90;;
59127;SDS011;44912;52.754;5.994;2022-07-19T00:58:24;11.27;;;5.68;;
59127;SDS011;44912;52.754;5.994;2022-07-19T01:00:51;11.05;;;5.97;;
59127;SDS011;44912;52.754;5.994;2022-07-19T01:03:17;9.55;;;5.70;;
59127;SDS011;44912;52.754;5.994;2022-07-19T01:05:45;10.52;;;5.47;;
59127;SDS011;44912;52.754;5.994;2022-07-19T01:08:11;11.00;;;5.63;;
59127;SDS011;44912;52.754;5.994;2022-07-19T01:10:37;13.13;;;6.22;;
59127;SDS011;44912;52.754;5.994;2022-07-19T01:13:05;8.80;;;5.65;;
59127;SDS011;44912;52.754;5.994;2022-07-19T01:15:33;9.65;;;5.85;;
59127;SDS011;44912;52.754;5.994;2022-07-19T01:17:59;9.50;;;6.15;;
59127;SDS011;44912;52.754;5.994;2022-07-19T01:20:24;9.80;;;6.25;;
59127;SDS011;44912;52.754;5.994;2022-07-19T01:22:50;8.48;;;5.72;;
59127;SDS011;44912;52.754;5.994;2022-07-19T01:25:16;9.40;;;5.35;;
59127;SDS011;44912;52.754;5.994;2022-07-19T01:27:46;9.75;;;5.60;;
59127;SDS011;44912;52.754;5.994;2022-07-19T01:30:14;11.88;;;6.13;;
59127;SDS011;44912;52.754;5.994;2022-07-19T01:32:41;10.07;;;5.97;;
59127;SDS011;44912;52.754;5.994;2022-07-19T01:35:07;9.07;;;5.82;;
59127;SDS011;44912;52.754;5.994;2022-07-19T01:37:34;9.57;;;5.35;;
59127;SDS011;44912;52.754;5.994;2022-07-19T01:40:02;10.77;;;5.78;;
59127;SDS011;44912;52.754;5.994;2022-07-19T01:42:29;9.75;;;5.50;;
59127;SDS011;44912;52.754;5.994;2022-07-19T01:44:54;10.10;;;6.10;;
59127;SDS011;44912;52.754;5.994;2022-07-19T01:47:20;9.85;;;5.95;;
59127;SDS011;44912;52.754;5.994;2022-07-19T01:49:46;11.57;;;6.45;;
59127;SDS011;44912;52.754;5.994;2022-07-19T01:52:11;9.15;;;5.82;;
59127;SDS011;44912;52.754;5.994;2022-07-19T01:54:37;12.48;;;6.47;;
59127;SDS011;44912;52.754;5.994;2022-07-19T01:57:02;10.95;;;6.35;;
59127;SDS011;44912;52.754;5.994;2022-07-19T01:59:28;10.43;;;6.45;;
59127;SDS011;44912;52.754;5.994;2022-07-19T02:01:53;11.20;;;6.22;;
59127;SDS011;44912;52.754;5.994;2022-07-19T02:04:19;9.10;;;6.22;;
59127;SDS011;44912;52.754;5.994;2022-07-19T02:06:44;10.40;;;6.40;;
59127;SDS011;44912;52.754;5.994;2022-07-19T02:09:11;11.05;;;5.90;;
59127;SDS011;44912;52.754;5.994;2022-07-19T02:11:36;12.27;;;6.82;;
59127;SDS011;44912;52.754;5.994;2022-07-19T02:14:06;10.48;;;6.97;;
59127;SDS011;44912;52.754;5.994;2022-07-19T02:16:33;10.80;;;7.00;;
59127;SDS011;44912;52.754;5.994;2022-07-19T02:19:00;10.90;;;6.57;;
59127;SDS011;44912;52.754;5.994;2022-07-19T02:21:30;13.30;;;7.13;;
59127;SDS011;44912;52.754;5.994;2022-07-19T02:23:56;11.23;;;6.55;;
59127;SDS011;44912;52.754;5.994;2022-07-19T02:26:21;13.98;;;7.70;;
59127;SDS011;44912;52.754;5.994;2022-07-19T02:28:47;11.05;;;6.82;;
59127;SDS011;44912;52.754;5.994;2022-07-19T02:31:12;11.65;;;7.32;;
59127;SDS011;44912;52.754;5.994;2022-07-19T02:33:38;11.32;;;6.80;;
59127;SDS011;44912;52.754;5.994;2022-07-19T02:36:04;11.88;;;7.25;;
59127;SDS011;44912;52.754;5.994;2022-07-19T02:38:30;9.48;;;6.75;;
59127;SDS011;44912;52.754;5.994;2022-07-19T02:40:58;10.90;;;7.18;;
59127;SDS011;44912;52.754;5.994;2022-07-19T02:43:24;11.38;;;7.18;;
59127;SDS011;44912;52.754;5.994;2022-07-19T02:45:49;13.15;;;7.63;;
59127;SDS011;44912;52.754;5.994;2022-07-19T02:48:15;10.70;;;6.88;;
59127;SDS011;44912;52.754;5.994;2022-07-19T02:50:40;12.73;;;7.30;;
59127;SDS011;44912;52.754;5.994;2022-07-19T02:53:08;12.98;;;7.80;;
59127;SDS011;44912;52.754;5.994;2022-07-19T02:55:36;10.40;;;6.88;;
59127;SDS011;44912;52.754;5.994;2022-07-19T02:58:02;9.98;;;7.07;;
59127;SDS011;44912;52.754;5.994;2022-07-19T03:00:28;13.50;;;7.38;;
59127;SDS011;44912;52.754;5.994;2022-07-19T03:02:54;11.40;;;7.60;;
59127;SDS011;44912;52.754;5.994;2022-07-19T03:05:41;10.23;;;6.90;;
59127;SDS011;44912;52.754;5.994;2022-07-19T03:08:09;11.20;;;7.35;;
59127;SDS011;44912;52.754;5.994;2022-07-19T03:10:34;11.80;;;8.05;;
59127;SDS011;44912;52.754;5.994;2022-07-19T03:13:00;13.27;;;7.85;;
59127;SDS011;44912;52.754;5.994;2022-07-19T03:15:25;12.02;;;7.82;;
59127;SDS011;44912;52.754;5.994;2022-07-19T03:17:51;14.05;;;7.63;;
59127;SDS011;44912;52.754;5.994;2022-07-19T03:20:16;12.95;;;8.18;;
59127;SDS011;44912;52.754;5.994;2022-07-19T03:22:42;12.20;;;8.02;;
59127;SDS011;44912;52.754;5.994;2022-07-19T03:25:10;13.40;;;8.35;;
59127;SDS011;44912;52.754;5.994;2022-07-19T03:27:36;15.57;;;7.90;;
59127;SDS011;44912;52.754;5.994;2022-07-19T03:30:01;12.82;;;8.20;;
59127;SDS011;44912;52.754;5.994;2022-07-19T03:32:28;12.90;;;8.43;;
59127;SDS011;44912;52.754;5.994;2022-07-19T03:34:54;13.07;;;7.63;;
59127;SDS011;44912;52.754;5.994;2022-07-19T03:37:19;12.80;;;8.45;;
59127;SDS011;44912;52.754;5.994;2022-07-19T03:39:45;13.00;;;8.55;;
59127;SDS011;44912;52.754;5.994;2022-07-19T03:42:10;13.88;;;9.00;;
59127;SDS011;44912;52.754;5.994;2022-07-19T03:44:36;12.70;;;8.50;;
59127;SDS011;44912;52.754;5.994;2022-07-19T03:47:01;12.57;;;7.95;;
59127;SDS011;44912;52.754;5.994;2022-07-19T03:49:27;12.90;;;8.90;;
59127;SDS011;44912;52.754;5.994;2022-07-19T03:51:52;12.13;;;7.90;;
59127;SDS011;44912;52.754;5.994;2022-07-19T03:54:20;12.98;;;8.63;;
59127;SDS011;44912;52.754;5.994;2022-07-19T03:56:46;14.23;;;8.95;;
59127;SDS011;44912;52.754;5.994;2022-07-19T03:59:12;14.05;;;8.48;;
59127;SDS011;44912;52.754;5.994;2022-07-19T04:01:37;11.35;;;8.30;;
59127;SDS011;44912;52.754;5.994;2022-07-19T04:04:04;14.02;;;8.93;;
59127;SDS011;44912;52.754;5.994;2022-07-19T04:06:30;15.35;;;8.82;;
59127;SDS011;44912;52.754;5.994;2022-07-19T04:08:56;13.32;;;8.25;;
59127;SDS011;44912;52.754;5.994;2022-07-19T04:11:21;13.10;;;8.60;;
59127;SDS011;44912;52.754;5.994;2022-07-19T04:13:47;12.63;;;8.63;;
59127;SDS011;44912;52.754;5.994;2022-07-19T04:16:13;12.20;;;8.40;;
59127;SDS011;44912;52.754;5.994;2022-07-19T04:18:40;12.52;;;8.85;;
59127;SDS011;44912;52.754;5.994;2022-07-19T04:21:06;11.68;;;8.00;;
59127;SDS011;44912;52.754;5.994;2022-07-19T04:23:31;15.57;;;9.43;;
59127;SDS011;44912;52.754;5.994;2022-07-19T04:25:57;12.88;;;9.32;;
59127;SDS011;44912;52.754;5.994;2022-07-19T04:28:23;11.98;;;8.82;;
59127;SDS011;44912;52.754;5.994;2022-07-19T04:30:48;14.85;;;9.55;;
59127;SDS011;44912;52.754;5.994;2022-07-19T04:33:17;12.80;;;9.10;;
59127;SDS011;44912;52.754;5.994;2022-07-19T04:35:44;14.77;;;8.93;;
59127;SDS011;44912;52.754;5.994;2022-07-19T04:38:10;14.00;;;9.52;;
59127;SDS011;44912;52.754;5.994;2022-07-19T04:40:36;14.57;;;9.57;;
59127;SDS011;44912;52.754;5.994;2022-07-19T04:43:03;14.93;;;9.02;;
59127;SDS011;44912;52.754;5.994;2022-07-19T04:45:28;12.43;;;9.65;;
59127;SDS011;44912;52.754;5.994;2022-07-19T04:47:54;14.30;;;8.95;;
59127;SDS011;44912;52.754;5.994;2022-07-19T04:50:20;12.20;;;8.57;;
59127;SDS011;44912;52.754;5.994;2022-07-19T04:52:46;11.95;;;8.32;;
59127;SDS011;44912;52.754;5.994;2022-07-19T04:55:12;13.55;;;8.90;;
59127;SDS011;44912;52.754;5.994;2022-07-19T04:57:38;12.38;;;8.93;;
59127;SDS011;44912;52.754;5.994;2022-07-19T05:00:04;12.65;;;9.20;;
59127;SDS011;44912;52.754;5.994;2022-07-19T05:02:34;12.00;;;8.90;;
59127;SDS011;44912;52.754;5.994;2022-07-19T05:04:59;12.75;;;8.43;;
59127;SDS011;44912;52.754;5.994;2022-07-19T05:07:28;13.05;;;8.70;;
59127;SDS011;44912;52.754;5.994;2022-07-19T05:09:53;11.88;;;8.50;;
59127;SDS011;44912;52.754;5.994;2022-07-19T05:12:19;12.63;;;8.60;;
59127;SDS011;44912;52.754;5.994;2022-07-19T05:14:44;12.43;;;8.52;;
59127;SDS011;44912;52.754;5.994;2022-07-19T05:17:10;12.63;;;8.70;;
59127;SDS011;44912;52.754;5.994;2022-07-19T05:19:37;14.73;;;8.57;;
59127;SDS011;44912;52.754;5.994;2022-07-19T05:22:02;12.73;;;8.10;;
59127;SDS011;44912;52.754;5.994;2022-07-19T05:24:28;13.98;;;8.90;;
59127;SDS011;44912;52.754;5.994;2022-07-19T05:26:53;13.80;;;9.13;;
59127;SDS011;44912;52.754;5.994;2022-07-19T05:29:19;15.55;;;9.07;;
59127;SDS011;44912;52.754;5.994;2022-07-19T05:31:45;14.75;;;8.75;;
59127;SDS011;44912;52.754;5.994;2022-07-19T05:34:11;15.18;;;9.57;;
59127;SDS011;44912;52.754;5.994;2022-07-19T05:36:36;13.15;;;8.23;;
59127;SDS011;44912;52.754;5.994;2022-07-19T05:39:02;13.43;;;8.80;;
59127;SDS011;44912;52.754;5.994;2022-07-19T05:41:28;13.13;;;8.55;;
59127;SDS011;44912;52.754;5.994;2022-07-19T05:43:53;15.55;;;8.73;;
59127;SDS011;44912;52.754;5.994;2022-07-19T05:46:19;14.93;;;8.68;;
59127;SDS011;44912;52.754;5.994;2022-07-19T05:48:45;12.48;;;8.52;;
59127;SDS011;44912;52.754;5.994;2022-07-19T05:51:11;12.60;;;9.25;;
59127;SDS011;44912;52.754;5.994;2022-07-19T05:53:37;12.30;;;8.38;;
59127;SDS011;44912;52.754;5.994;2022-07-19T05:56:06;13.95;;;8.65;;
59127;SDS011;44912;52.754;5.994;2022-07-19T05:58:34;13.23;;;8.80;;
59127;SDS011;44912;52.754;5.994;2022-07-19T06:01:00;11.40;;;7.90;;
59127;SDS011;44912;52.754;5.994;2022-07-19T06:04:05;13.23;;;9.07;;
59127;SDS011;44912;52.754;5.994;2022-07-19T06:06:31;13.93;;;9.90;;
59127;SDS011;44912;52.754;5.994;2022-07-19T06:08:58;13.60;;;9.45;;
59127;SDS011;44912;52.754;5.994;2022-07-19T06:11:24;14.80;;;8.73;;
59127;SDS011;44912;52.754;5.994;2022-07-19T06:13:50;12.90;;;8.57;;
59127;SDS011;44912;52.754;5.994;2022-07-19T06:16:19;12.50;;;8.20;;
59127;SDS011;44912;52.754;5.994;2022-07-19T06:18:45;12.48;;;9.23;;
59127;SDS011;44912;52.754;5.994;2022-07-19T06:21:12;11.43;;;8.48;;
59127;SDS011;44912;52.754;5.994;2022-07-19T06:23:40;14.45;;;9.02;;
59127;SDS011;44912;52.754;5.994;2022-07-19T06:26:07;12.00;;;8.68;;
59127;SDS011;44912;52.754;5.994;2022-07-19T06:28:33;12.63;;;7.95;;
59127;SDS011;44912;52.754;5.994;2022-07-19T06:30:59;14.05;;;9.00;;
59127;SDS011;44912;52.754;5.994;2022-07-19T06:33:24;13.57;;;9.18;;
59127;SDS011;44912;52.754;5.994;2022-07-19T06:35:50;13.73;;;8.27;;
59127;SDS011;44912;52.754;5.994;2022-07-19T06:38:16;12.10;;;8.05;;
59127;SDS011;44912;52.754;5.994;2022-07-19T06:40:41;12.35;;;8.45;;
59127;SDS011;44912;52.754;5.994;2022-07-19T06:43:07;11.30;;;7.75;;
59127;SDS011;44912;52.754;5.994;2022-07-19T06:45:33;13.52;;;8.07;;
59127;SDS011;44912;52.754;5.994;2022-07-19T06:47:59;12.52;;;8.38;;
59127;SDS011;44912;52.754;5.994;2022-07-19T06:50:24;11.57;;;8.00;;
59127;SDS011;44912;52.754;5.994;2022-07-19T06:52:50;12.02;;;7.60;;
59127;SDS011;44912;52.754;5.994;2022-07-19T06:55:16;11.10;;;7.80;;
59127;SDS011;44912;52.754;5.994;2022-07-19T06:57:44;12.80;;;7.53;;
59127;SDS011;44912;52.754;5.994;2022-07-19T07:00:10;13.57;;;7.75;;
59127;SDS011;44912;52.754;5.994;2022-07-19T07:02:36;10.55;;;6.97;;
59127;SDS011;44912;52.754;5.994;2022-07-19T07:05:02;13.30;;;7.38;;
59127;SDS011;44912;52.754;5.994;2022-07-19T07:07:29;16.35;;;7.35;;
59127;SDS011;44912;52.754;5.994;2022-07-19T07:09:57;10.90;;;6.60;;
59127;SDS011;44912;52.754;5.994;2022-07-19T07:12:22;10.38;;;6.80;;
59127;SDS011;44912;52.754;5.994;2022-07-19T07:14:48;12.60;;;7.18;;
59127;SDS011;44912;52.754;5.994;2022-07-19T07:17:14;13.90;;;6.97;;
59127;SDS011;44912;52.754;5.994;2022-07-19T07:19:39;9.23;;;6.15;;
59127;SDS011;44912;52.754;5.994;2022-07-19T07:22:05;11.95;;;7.13;;
59127;SDS011;44912;52.754;5.994;2022-07-19T07:24:30;12.65;;;6.68;;
59127;SDS011;44912;52.754;5.994;2022-07-19T07:26:56;10.70;;;6.20;;
59127;SDS011;44912;52.754;5.994;2022-07-19T07:29:22;10.68;;;5.97;;
59127;SDS011;44912;52.754;5.994;2022-07-19T07:31:48;13.32;;;6.93;;
59127;SDS011;44912;52.754;5.994;2022-07-19T07:34:16;10.60;;;5.65;;
59127;SDS011;44912;52.754;5.994;2022-07-19T07:36:42;10.82;;;5.90;;
59127;SDS011;44912;52.754;5.994;2022-07-19T07:39:09;10.02;;;5.55;;
59127;SDS011;44912;52.754;5.994;2022-07-19T07:41:35;9.80;;;5.10;;
59127;SDS011;44912;52.754;5.994;2022-07-19T07:44:03;12.05;;;5.63;;
59127;SDS011;44912;52.754;5.994;2022-07-19T07:46:29;10.38;;;5.78;;
59127;SDS011;44912;52.754;5.994;2022-07-19T07:48:55;10.80;;;5.72;;
59127;SDS011;44912;52.754;5.994;2022-07-19T07:51:21;10.73;;;6.22;;
59127;SDS011;44912;52.754;5.994;2022-07-19T07:53:46;12.73;;;6.03;;
59127;SDS011;44912;52.754;5.994;2022-07-19T07:56:14;10.80;;;5.30;;
59127;SDS011;44912;52.754;5.994;2022-07-19T07:58:40;10.15;;;5.03;;
59127;SDS011;44912;52.754;5.994;2022-07-19T08:01:06;9.98;;;4.57;;
59127;SDS011;44912;52.754;5.994;2022-07-19T08:03:31;11.05;;;4.32;;
59127;SDS011;44912;52.754;5.994;2022-07-19T08:05:57;10.48;;;4.45;;
59127;SDS011;44912;52.754;5.994;2022-07-19T08:08:23;11.40;;;4.20;;
59127;SDS011;44912;52.754;5.994;2022-07-19T08:10:52;8.35;;;3.97;;
59127;SDS011;44912;52.754;5.994;2022-07-19T08:13:18;9.40;;;4.32;;
59127;SDS011;44912;52.754;5.994;2022-07-19T08:15:44;8.63;;;3.75;;
59127;SDS011;44912;52.754;5.994;2022-07-19T08:18:10;10.18;;;4.03;;
59127;SDS011;44912;52.754;5.994;2022-07-19T08:20:35;9.13;;;3.90;;
59127;SDS011;44912;52.754;5.994;2022-07-19T08:23:01;9.73;;;3.40;;
59127;SDS011;44912;52.754;5.994;2022-07-19T08:25:27;11.23;;;3.55;;
59127;SDS011;44912;52.754;5.994;2022-07-19T08:27:53;9.55;;;3.50;;
59127;SDS011;44912;52.754;5.994;2022-07-19T08:30:18;7.10;;;2.60;;
59127;SDS011;44912;52.754;5.994;2022-07-19T08:32:46;6.18;;;2.40;;
59127;SDS011;44912;52.754;5.994;2022-07-19T08:35:12;4.72;;;2.20;;
59127;SDS011;44912;52.754;5.994;2022-07-19T08:37:38;6.50;;;2.25;;
59127;SDS011;44912;52.754;5.994;2022-07-19T08:40:04;6.45;;;2.22;;
59127;SDS011;44912;52.754;5.994;2022-07-19T08:42:31;5.60;;;2.72;;
59127;SDS011;44912;52.754;5.994;2022-07-19T08:44:59;5.47;;;2.42;;
59127;SDS011;44912;52.754;5.994;2022-07-19T08:47:29;5.07;;;2.33;;
59127;SDS011;44912;52.754;5.994;2022-07-19T08:49:56;6.95;;;2.20;;
59127;SDS011;44912;52.754;5.994;2022-07-19T08:52:24;7.95;;;2.35;;
59127;SDS011;44912;52.754;5.994;2022-07-19T08:54:51;5.43;;;2.15;;
59127;SDS011;44912;52.754;5.994;2022-07-19T08:57:16;5.57;;;2.28;;
59127;SDS011;44912;52.754;5.994;2022-07-19T09:00:03;7.38;;;2.42;;
59127;SDS011;44912;52.754;5.994;2022-07-19T09:02:30;6.53;;;2.13;;
59127;SDS011;44912;52.754;5.994;2022-07-19T09:05:06;6.10;;;2.40;;
59127;SDS011;44912;52.754;5.994;2022-07-19T09:07:33;6.32;;;2.13;;
59127;SDS011;44912;52.754;5.994;2022-07-19T09:16:02;5.90;;;2.17;;
59127;SDS011;44912;52.754;5.994;2022-07-19T09:18:25;6.75;;;2.28;;
59127;SDS011;44912;52.754;5.994;2022-07-19T09:20:57;4.47;;;2.30;;
59127;SDS011;44912;52.754;5.994;2022-07-19T09:23:24;6.72;;;2.35;;
59127;SDS011;44912;52.754;5.994;2022-07-19T09:28:18;6.75;;;2.40;;
59127;SDS011;44912;52.754;5.994;2022-07-19T09:30:46;7.22;;;2.17;;
59127;SDS011;44912;52.754;5.994;2022-07-19T09:33:14;7.07;;;2.50;;
59127;SDS011;44912;52.754;5.994;2022-07-19T09:35:46;8.98;;;2.85;;
59127;SDS011;44912;52.754;5.994;2022-07-19T09:40:50;5.10;;;2.20;;
59127;SDS011;44912;52.754;5.994;2022-07-19T09:43:17;6.68;;;2.15;;
59127;SDS011;44912;52.754;5.994;2022-07-19T09:45:44;5.65;;;2.30;;
59127;SDS011;44912;52.754;5.994;2022-07-19T09:48:10;7.47;;;2.35;;
59127;SDS011;44912;52.754;5.994;2022-07-19T09:50:36;5.78;;;2.30;;
59127;SDS011;44912;52.754;5.994;2022-07-19T09:53:03;8.35;;;2.47;;
59127;SDS011;44912;52.754;5.994;2022-07-19T09:55:30;5.82;;;2.50;;
59127;SDS011;44912;52.754;5.994;2022-07-19T09:57:58;5.95;;;2.30;;
59127;SDS011;44912;52.754;5.994;2022-07-19T10:00:26;7.03;;;2.58;;
59127;SDS011;44912;52.754;5.994;2022-07-19T10:02:59;6.93;;;2.40;;
59127;SDS011;44912;52.754;5.994;2022-07-19T10:07:53;5.57;;;2.50;;
59127;SDS011;44912;52.754;5.994;2022-07-19T10:10:22;9.77;;;2.90;;
59127;SDS011;44912;52.754;5.994;2022-07-19T10:12:49;7.95;;;2.45;;
59127;SDS011;44912;52.754;5.994;2022-07-19T10:15:16;5.35;;;2.38;;
59127;SDS011;44912;52.754;5.994;2022-07-19T10:17:47;6.57;;;2.28;;
59127;SDS011;44912;52.754;5.994;2022-07-19T10:20:16;8.40;;;2.00;;
59127;SDS011;44912;52.754;5.994;2022-07-19T10:22:45;9.50;;;2.33;;
59127;SDS011;44912;52.754;5.994;2022-07-19T10:25:15;4.43;;;1.90;;
59127;SDS011;44912;52.754;5.994;2022-07-19T10:27:46;3.65;;;1.90;;
59127;SDS011;44912;52.754;5.994;2022-07-19T10:32:40;6.20;;;2.20;;
59127;SDS011;44912;52.754;5.994;2022-07-19T10:37:42;7.10;;;2.00;;
59127;SDS011;44912;52.754;5.994;2022-07-19T10:40:08;5.47;;;2.00;;
59127;SDS011;44912;52.754;5.994;2022-07-19T10:42:36;6.28;;;1.85;;
59127;SDS011;44912;52.754;5.994;2022-07-19T10:45:22;5.80;;;2.03;;
59127;SDS011;44912;52.754;5.994;2022-07-19T10:50:13;5.20;;;1.90;;
59127;SDS011;44912;52.754;5.994;2022-07-19T10:52:41;5.28;;;2.22;;
59127;SDS011;44912;52.754;5.994;2022-07-19T10:57:47;4.90;;;2.00;;
59127;SDS011;44912;52.754;5.994;2022-07-19T11:05:52;5.90;;;1.95;;
59127;SDS011;44912;52.754;5.994;2022-07-19T11:11:10;5.63;;;2.17;;
59127;SDS011;44912;52.754;5.994;2022-07-19T11:13:38;5.03;;;1.90;;
59127;SDS011;44912;52.754;5.994;2022-07-19T11:16:07;5.38;;;1.80;;
59127;SDS011;44912;52.754;5.994;2022-07-19T11:18:33;5.10;;;1.80;;
59127;SDS011;44912;52.754;5.994;2022-07-19T11:20:59;6.13;;;1.80;;
59127;SDS011;44912;52.754;5.994;2022-07-19T11:23:30;5.75;;;1.90;;
59127;SDS011;44912;52.754;5.994;2022-07-19T11:28:51;5.90;;;2.13;;
59127;SDS011;44912;52.754;5.994;2022-07-19T11:31:21;5.28;;;1.58;;
59127;SDS011;44912;52.754;5.994;2022-07-19T11:33:48;6.22;;;1.83;;
59127;SDS011;44912;52.754;5.994;2022-07-19T11:36:16;6.53;;;2.05;;
59127;SDS011;44912;52.754;5.994;2022-07-19T11:43:57;5.68;;;2.00;;
59127;SDS011;44912;52.754;5.994;2022-07-19T11:46:26;5.90;;;1.90;;
59127;SDS011;44912;52.754;5.994;2022-07-19T11:49:02;4.93;;;1.70;;
59127;SDS011;44912;52.754;5.994;2022-07-19T11:51:30;4.60;;;1.60;;
59127;SDS011;44912;52.754;5.994;2022-07-19T11:53:56;7.95;;;2.00;;
59127;SDS011;44912;52.754;5.994;2022-07-19T11:58:51;5.95;;;1.80;;
59127;SDS011;44912;52.754;5.994;2022-07-19T12:01:34;7.53;;;1.80;;
59127;SDS011;44912;52.754;5.994;2022-07-19T12:04:06;5.40;;;1.75;;
59127;SDS011;44912;52.754;5.994;2022-07-19T12:09:03;4.22;;;1.58;;
59127;SDS011;44912;52.754;5.994;2022-07-19T12:11:30;6.45;;;1.80;;
59127;SDS011;44912;52.754;5.994;2022-07-19T12:19:40;5.60;;;1.60;;
59127;SDS011;44912;52.754;5.994;2022-07-19T12:22:24;8.10;;;1.95;;
59127;SDS011;44912;52.754;5.994;2022-07-19T12:25:01;4.93;;;1.60;;
59127;SDS011;44912;52.754;5.994;2022-07-19T12:27:28;5.20;;;1.80;;
59127;SDS011;44912;52.754;5.994;2022-07-19T12:29:58;5.90;;;1.50;;
59127;SDS011;44912;52.754;5.994;2022-07-19T12:32:28;5.05;;;1.50;;
59127;SDS011;44912;52.754;5.994;2022-07-19T12:35:00;5.45;;;1.52;;
59127;SDS011;44912;52.754;5.994;2022-07-19T12:37:32;8.43;;;1.60;;
59127;SDS011;44912;52.754;5.994;2022-07-19T12:40:04;4.38;;;1.45;;
59127;SDS011;44912;52.754;5.994;2022-07-19T12:42:53;5.35;;;1.70;;
59127;SDS011;44912;52.754;5.994;2022-07-19T12:45:37;4.10;;;1.50;;
59127;SDS011;44912;52.754;5.994;2022-07-19T12:48:09;5.63;;;1.80;;
59127;SDS011;44912;52.754;5.994;2022-07-19T12:50:38;5.05;;;1.70;;
59127;SDS011;44912;52.754;5.994;2022-07-19T12:53:09;3.80;;;1.48;;
59127;SDS011;44912;52.754;5.994;2022-07-19T12:55:36;4.18;;;1.58;;
59127;SDS011;44912;52.754;5.994;2022-07-19T12:58:05;5.93;;;1.60;;
59127;SDS011;44912;52.754;5.994;2022-07-19T13:00:32;4.97;;;1.73;;
59127;SDS011;44912;52.754;5.994;2022-07-19T13:02:59;4.90;;;1.58;;
59127;SDS011;44912;52.754;5.994;2022-07-19T13:05:26;3.97;;;1.48;;
59127;SDS011;44912;52.754;5.994;2022-07-19T13:07:52;4.93;;;1.60;;
59127;SDS011;44912;52.754;5.994;2022-07-19T13:10:18;5.35;;;1.50;;
59127;SDS011;44912;52.754;5.994;2022-07-19T13:12:43;6.07;;;1.70;;
59127;SDS011;44912;52.754;5.994;2022-07-19T13:15:09;4.25;;;1.58;;
59127;SDS011;44912;52.754;5.994;2022-07-19T13:17:36;4.80;;;1.45;;
59127;SDS011;44912;52.754;5.994;2022-07-19T13:20:02;3.42;;;1.33;;
59127;SDS011;44912;52.754;5.994;2022-07-19T13:22:31;5.40;;;1.50;;
59127;SDS011;44912;52.754;5.994;2022-07-19T13:24:57;3.42;;;1.38;;
59127;SDS011;44912;52.754;5.994;2022-07-19T13:27:22;3.30;;;1.30;;
59127;SDS011;44912;52.754;5.994;2022-07-19T13:29:48;5.82;;;1.35;;
59127;SDS011;44912;52.754;5.994;2022-07-19T13:32:13;4.47;;;1.63;;
59127;SDS011;44912;52.754;5.994;2022-07-19T13:34:39;4.90;;;1.30;;
59127;SDS011;44912;52.754;5.994;2022-07-19T13:37:05;5.82;;;1.60;;
59127;SDS011;44912;52.754;5.994;2022-07-19T13:39:31;2.55;;;1.20;;
59127;SDS011;44912;52.754;5.994;2022-07-19T13:41:57;3.20;;;1.27;;
59127;SDS011;44912;52.754;5.994;2022-07-19T13:44:22;3.83;;;1.10;;
59127;SDS011;44912;52.754;5.994;2022-07-19T13:46:48;3.15;;;1.17;;
59127;SDS011;44912;52.754;5.994;2022-07-19T13:49:14;4.75;;;1.20;;
59127;SDS011;44912;52.754;5.994;2022-07-19T13:51:40;3.42;;;1.20;;
59127;SDS011;44912;52.754;5.994;2022-07-19T13:54:05;3.78;;;1.10;;
59127;SDS011;44912;52.754;5.994;2022-07-19T13:56:32;2.83;;;1.20;;
59127;SDS011;44912;52.754;5.994;2022-07-19T13:58:58;5.18;;;1.30;;
59127;SDS011;44912;52.754;5.994;2022-07-19T14:01:24;4.55;;;1.35;;
59127;SDS011;44912;52.754;5.994;2022-07-19T14:03:50;6.00;;;1.30;;
59127;SDS011;44912;52.754;5.994;2022-07-19T14:06:16;2.72;;;1.10;;
59127;SDS011;44912;52.754;5.994;2022-07-19T14:08:42;4.10;;;1.25;;
59127;SDS011;44912;52.754;5.994;2022-07-19T14:11:08;2.75;;;1.10;;
59127;SDS011;44912;52.754;5.994;2022-07-19T14:13:34;3.08;;;1.35;;
59127;SDS011;44912;52.754;5.994;2022-07-19T14:16:00;6.78;;;1.40;;
59127;SDS011;44912;52.754;5.994;2022-07-19T14:18:29;3.88;;;1.48;;
59127;SDS011;44912;52.754;5.994;2022-07-19T14:20:55;4.50;;;1.35;;
59127;SDS011;44912;52.754;5.994;2022-07-19T14:23:21;6.28;;;1.50;;
59127;SDS011;44912;52.754;5.994;2022-07-19T14:25:47;3.58;;;1.40;;
59127;SDS011;44912;52.754;5.994;2022-07-19T14:28:15;3.05;;;1.27;;
59127;SDS011;44912;52.754;5.994;2022-07-19T14:30:44;3.08;;;1.30;;
59127;SDS011;44912;52.754;5.994;2022-07-19T14:33:10;4.43;;;1.30;;
59127;SDS011;44912;52.754;5.994;2022-07-19T14:35:35;3.53;;;1.35;;
59127;SDS011;44912;52.754;5.994;2022-07-19T14:38:03;8.95;;;1.50;;
59127;SDS011;44912;52.754;5.994;2022-07-19T14:40:29;2.80;;;1.10;;
59127;SDS011;44912;52.754;5.994;2022-07-19T14:42:55;6.25;;;1.30;;
59127;SDS011;44912;52.754;5.994;2022-07-19T14:45:21;4.63;;;1.60;;
59127;SDS011;44912;52.754;5.994;2022-07-19T14:47:47;3.22;;;1.40;;
59127;SDS011;44912;52.754;5.994;2022-07-19T14:50:16;6.82;;;1.48;;
59127;SDS011;44912;52.754;5.994;2022-07-19T14:52:41;4.68;;;1.42;;
59127;SDS011;44912;52.754;5.994;2022-07-19T14:55:08;3.35;;;1.50;;
59127;SDS011;44912;52.754;5.994;2022-07-19T14:57:35;5.07;;;1.38;;
59127;SDS011;44912;52.754;5.994;2022-07-19T15:00:00;5.22;;;1.45;;
59127;SDS011;44912;52.754;5.994;2022-07-19T15:02:26;4.78;;;1.33;;
59127;SDS011;44912;52.754;5.994;2022-07-19T15:04:52;4.47;;;1.30;;
59127;SDS011;44912;52.754;5.994;2022-07-19T15:07:20;6.57;;;1.40;;
59127;SDS011;44912;52.754;5.994;2022-07-19T15:09:46;2.83;;;1.40;;
59127;SDS011;44912;52.754;5.994;2022-07-19T15:12:12;6.57;;;1.52;;
59127;SDS011;44912;52.754;5.994;2022-07-19T15:15:06;4.80;;;1.30;;
59127;SDS011;44912;52.754;5.994;2022-07-19T15:17:34;4.60;;;1.35;;
59127;SDS011;44912;52.754;5.994;2022-07-19T15:19:59;4.72;;;1.48;;
59127;SDS011;44912;52.754;5.994;2022-07-19T15:22:25;2.60;;;1.30;;
59127;SDS011;44912;52.754;5.994;2022-07-19T15:27:56;4.43;;;1.30;;
59127;SDS011;44912;52.754;5.994;2022-07-19T15:30:23;2.97;;;1.33;;
59127;SDS011;44912;52.754;5.994;2022-07-19T15:32:49;4.15;;;1.48;;
59127;SDS011;44912;52.754;5.994;2022-07-19T15:41:21;5.80;;;1.58;;